createdAt,value
2018-03-23T00:00:27.360Z,2.24
2018-03-23T00:01:27.358Z,2.23
2018-03-23T00:02:27.364Z,2.28
2018-03-23T00:03:27.377Z,2.29
2018-03-23T00:04:27.394Z,2.29
2018-03-23T00:05:27.391Z,2.28
2018-03-23T00:06:27.391Z,2.28
2018-03-23T00:07:27.393Z,2.27
2018-03-23T00:08:27.387Z,2.25
2018-03-23T00:09:27.377Z,2.25
2018-03-23T00:10:27.371Z,2.3
2018-03-23T00:11:27.405Z,2.28
2018-03-23T00:12:27.383Z,2.28
2018-03-23T00:13:27.386Z,2.3
2018-03-23T00:14:27.411Z,2.24
2018-03-23T00:15:27.390Z,2.25
2018-03-23T00:16:27.404Z,2.24
2018-03-23T00:17:27.428Z,2.28
2018-03-23T00:18:27.420Z,2.26
2018-03-23T00:19:27.434Z,2.26
2018-03-23T00:20:27.409Z,2.3
2018-03-23T00:21:27.443Z,2.28
2018-03-23T00:22:27.445Z,2.3
2018-03-23T00:23:27.414Z,2.31
2018-03-23T00:24:27.413Z,2.34
2018-03-23T00:25:27.419Z,2.26
2018-03-23T00:26:27.442Z,2.31
2018-03-23T00:27:27.436Z,2.31
2018-03-23T00:28:27.447Z,2.29
2018-03-23T00:29:27.448Z,2.33
2018-03-23T00:30:27.437Z,2.33
2018-03-23T00:31:27.466Z,2.29
2018-03-23T00:32:27.489Z,2.28
2018-03-23T00:33:27.459Z,2.3
2018-03-23T00:34:27.474Z,2.32
2018-03-23T00:35:27.466Z,2.34
2018-03-23T00:36:27.462Z,2.34
2018-03-23T00:37:27.488Z,2.38
2018-03-23T00:38:27.470Z,2.35
2018-03-23T00:39:27.583Z,2.34
2018-03-23T00:40:27.475Z,2.34
2018-03-23T00:41:27.486Z,2.34
2018-03-23T00:42:27.518Z,2.45
2018-03-23T00:43:27.472Z,2.39
2018-03-23T00:44:27.504Z,2.36
2018-03-23T00:45:27.486Z,2.34
2018-03-23T00:46:27.501Z,2.35
2018-03-23T00:47:27.516Z,2.33
2018-03-23T00:48:27.483Z,2.37
2018-03-23T00:49:27.534Z,2.37
2018-03-23T00:50:27.497Z,2.33
2018-03-23T00:51:27.497Z,2.36
2018-03-23T00:52:27.483Z,2.32
2018-03-23T00:53:27.515Z,2.32
2018-03-23T00:54:27.510Z,2.32
2018-03-23T00:55:27.503Z,2.34
2018-03-23T00:56:27.511Z,2.31
2018-03-23T00:57:27.496Z,2.38
2018-03-23T00:58:27.528Z,2.33
2018-03-23T00:59:27.821Z,2.33
2018-03-23T01:00:27.535Z,2.36
2018-03-23T01:01:27.523Z,2.32
2018-03-23T01:02:27.516Z,2.35
2018-03-23T01:03:27.583Z,2.32
2018-03-23T01:04:27.517Z,2.31
2018-03-23T01:05:27.528Z,2.35
2018-03-23T01:06:27.759Z,2.3
2018-03-23T01:07:27.549Z,2.36
2018-03-23T01:08:27.552Z,2.33
2018-03-23T01:09:27.745Z,2.35
2018-03-23T01:10:27.542Z,2.33
2018-03-23T01:11:27.548Z,2.33
2018-03-23T01:12:27.557Z,2.29
2018-03-23T01:13:27.588Z,2.3
2018-03-23T01:14:27.556Z,2.27
2018-03-23T01:15:27.572Z,2.34
2018-03-23T01:16:27.570Z,2.35
2018-03-23T01:17:27.567Z,2.36
2018-03-23T01:18:27.592Z,2.39
2018-03-23T01:19:27.635Z,2.46
2018-03-23T01:20:27.573Z,2.41
2018-03-23T01:21:27.583Z,2.43
2018-03-23T01:22:27.577Z,2.45
2018-03-23T01:23:27.605Z,2.42
2018-03-23T01:24:27.616Z,2.34
2018-03-23T01:25:27.587Z,2.37
2018-03-23T01:26:27.590Z,2.42
2018-03-23T01:27:27.591Z,2.41
2018-03-23T01:28:27.683Z,2.43
2018-03-23T01:29:27.601Z,2.44
2018-03-23T01:30:27.608Z,2.43
2018-03-23T01:31:27.630Z,2.4
2018-03-23T01:32:27.602Z,2.43
2018-03-23T01:33:27.639Z,2.45
2018-03-23T01:34:27.622Z,2.42
2018-03-23T01:35:27.605Z,2.42
2018-03-23T01:36:27.723Z,2.48
2018-03-23T01:37:27.621Z,2.47
2018-03-23T01:38:27.639Z,2.44
2018-03-23T01:39:27.682Z,2.42
2018-03-23T01:40:27.613Z,2.42
2018-03-23T01:41:27.623Z,2.43
2018-03-23T01:42:27.646Z,2.46
2018-03-23T01:43:27.643Z,2.46
2018-03-23T01:44:27.670Z,2.48
2018-03-23T01:45:27.655Z,2.43
2018-03-23T01:46:27.627Z,2.42
2018-03-23T01:47:27.638Z,2.43
2018-03-23T01:48:27.663Z,2.39
2018-03-23T01:49:27.652Z,2.4
2018-03-23T01:50:27.658Z,2.38
2018-03-23T01:51:31.763Z,2.42
2018-03-23T01:52:27.675Z,2.41
2018-03-23T01:53:27.665Z,2.43
2018-03-23T01:54:27.667Z,2.43
2018-03-23T01:55:27.739Z,2.46
2018-03-23T01:56:27.673Z,2.43
2018-03-23T01:57:27.669Z,2.46
2018-03-23T01:58:27.691Z,2.46
2018-03-23T01:59:27.699Z,2.4
2018-03-23T02:00:27.688Z,2.53
2018-03-23T02:01:27.701Z,2.5
2018-03-23T02:02:27.706Z,2.49
2018-03-23T02:03:27.690Z,2.5
2018-03-23T02:04:27.713Z,2.5
2018-03-23T02:05:27.712Z,2.49
2018-03-23T02:06:27.722Z,2.48
2018-03-23T02:07:27.712Z,2.46
2018-03-23T02:08:27.709Z,2.5
2018-03-23T02:09:27.738Z,2.46
2018-03-23T02:10:27.745Z,2.48
2018-03-23T02:11:27.730Z,2.5
2018-03-23T02:12:27.736Z,2.56
2018-03-23T02:13:27.756Z,2.45
2018-03-23T02:14:27.804Z,2.51
2018-03-23T02:15:27.742Z,2.5
2018-03-23T02:16:27.954Z,2.47
2018-03-23T02:17:27.769Z,2.48
2018-03-23T02:18:27.762Z,2.44
2018-03-23T02:19:27.750Z,2.44
2018-03-23T02:20:27.764Z,2.46
2018-03-23T02:21:27.783Z,2.49
2018-03-23T02:22:27.757Z,2.47
2018-03-23T02:23:27.778Z,2.49
2018-03-23T02:24:27.812Z,2.48
2018-03-23T02:25:27.798Z,2.49
2018-03-23T02:26:27.793Z,2.45
2018-03-23T02:27:27.800Z,2.47
2018-03-23T02:28:27.808Z,2.46
2018-03-23T02:29:27.799Z,2.48
2018-03-23T02:30:27.833Z,2.47
2018-03-23T02:31:27.829Z,2.5
2018-03-23T02:32:27.813Z,2.48
2018-03-23T02:33:27.894Z,2.45
2018-03-23T02:34:27.827Z,2.48
2018-03-23T02:35:27.831Z,2.5
2018-03-23T02:36:27.833Z,2.48
2018-03-23T02:37:27.848Z,2.53
2018-03-23T02:38:27.856Z,2.49
2018-03-23T02:39:27.876Z,2.52
2018-03-23T02:40:27.887Z,2.53
2018-03-23T02:41:27.903Z,2.52
2018-03-23T02:42:27.879Z,2.45
2018-03-23T02:43:27.877Z,2.43
2018-03-23T02:44:27.885Z,2.49
2018-03-23T02:45:27.935Z,2.47
2018-03-23T02:46:27.866Z,2.52
2018-03-23T02:47:27.878Z,2.5
2018-03-23T02:48:27.863Z,2.52
2018-03-23T02:49:27.877Z,2.56
2018-03-23T02:50:27.870Z,2.54
2018-03-23T02:51:27.901Z,2.53
2018-03-23T02:52:27.923Z,2.55
2018-03-23T02:53:27.908Z,2.52
2018-03-23T02:54:27.906Z,2.55
2018-03-23T02:55:28.264Z,2.58
2018-03-23T02:56:27.938Z,2.59
2018-03-23T02:57:27.900Z,2.6
2018-03-23T02:58:27.905Z,2.59
2018-03-23T02:59:27.922Z,2.59
2018-03-23T03:00:27.979Z,2.56
2018-03-23T03:01:27.914Z,2.59
2018-03-23T03:02:27.928Z,2.63
2018-03-23T03:03:27.925Z,2.58
2018-03-23T03:04:27.927Z,2.57
2018-03-23T03:05:27.933Z,2.59
2018-03-23T03:06:27.957Z,2.58
2018-03-23T03:07:27.936Z,2.56
2018-03-23T03:08:27.950Z,2.58
2018-03-23T03:09:27.928Z,2.59
2018-03-23T03:10:27.940Z,2.55
2018-03-23T03:11:27.992Z,2.57
2018-03-23T03:12:27.947Z,2.54
2018-03-23T03:13:27.961Z,2.53
2018-03-23T03:14:27.948Z,2.62
2018-03-23T03:15:27.965Z,2.62
2018-03-23T03:16:27.948Z,2.64
2018-03-23T03:17:28.005Z,2.58
2018-03-23T03:18:27.959Z,2.65
2018-03-23T03:19:27.986Z,2.61
2018-03-23T03:20:27.976Z,2.64
2018-03-23T03:21:27.981Z,2.65
2018-03-23T03:22:27.970Z,2.64
2018-03-23T03:23:27.989Z,2.64
2018-03-23T03:24:28.004Z,2.62
2018-03-23T03:25:27.987Z,2.64
2018-03-23T03:26:27.997Z,2.66
2018-03-23T03:27:27.994Z,2.66
2018-03-23T03:28:27.997Z,2.65
2018-03-23T03:29:27.995Z,2.65
2018-03-23T03:30:28.056Z,2.66
2018-03-23T03:31:28.063Z,2.68
2018-03-23T03:32:28.018Z,2.66
2018-03-23T03:33:28.024Z,2.6
2018-03-23T03:34:28.024Z,2.61
2018-03-23T03:35:28.051Z,2.64
2018-03-23T03:36:28.031Z,2.64
2018-03-23T03:37:28.031Z,2.64
2018-03-23T03:38:28.076Z,2.65
2018-03-23T03:39:28.061Z,2.65
2018-03-23T03:40:28.052Z,2.59
2018-03-23T03:41:28.046Z,2.59
2018-03-23T03:42:28.054Z,2.62
2018-03-23T03:43:28.061Z,2.65
2018-03-23T03:44:28.108Z,2.67
2018-03-23T03:45:28.053Z,2.66
2018-03-23T03:46:28.073Z,2.7
2018-03-23T03:47:28.052Z,2.66
2018-03-23T03:48:28.061Z,2.65
2018-03-23T03:49:28.107Z,2.62
2018-03-23T03:50:28.075Z,2.61
2018-03-23T03:51:28.071Z,2.6
2018-03-23T03:52:28.086Z,2.66
2018-03-23T03:53:28.084Z,2.63
2018-03-23T03:54:28.081Z,2.65
2018-03-23T03:55:28.080Z,2.67
2018-03-23T03:56:28.102Z,2.68
2018-03-23T03:57:28.284Z,2.66
2018-03-23T03:58:28.086Z,2.68
2018-03-23T03:59:28.115Z,2.67
2018-03-23T04:00:28.110Z,2.61
2018-03-23T04:01:28.110Z,2.61
2018-03-23T04:02:28.128Z,2.64
2018-03-23T04:03:28.122Z,2.61
2018-03-23T04:04:28.137Z,2.61
2018-03-23T04:05:28.153Z,2.65
2018-03-23T04:06:28.144Z,2.62
2018-03-23T04:07:28.406Z,2.57
2018-03-23T04:08:28.123Z,2.59
2018-03-23T04:09:28.148Z,2.6
2018-03-23T04:10:28.169Z,2.59
2018-03-23T04:11:28.204Z,2.6
2018-03-23T04:12:28.160Z,2.6
2018-03-23T04:13:28.168Z,2.57
2018-03-23T04:14:28.159Z,2.59
2018-03-23T04:15:28.155Z,2.57
2018-03-23T04:16:28.163Z,2.58
2018-03-23T04:17:28.185Z,2.63
2018-03-23T04:18:28.172Z,2.67
2018-03-23T04:19:28.172Z,2.69
2018-03-23T04:20:28.192Z,2.7
2018-03-23T04:21:28.176Z,2.71
2018-03-23T04:22:28.185Z,2.69
2018-03-23T04:23:28.189Z,2.75
2018-03-23T04:24:28.197Z,2.71
2018-03-23T04:25:28.194Z,2.7
2018-03-23T04:26:28.231Z,2.68
2018-03-23T04:27:28.222Z,2.68
2018-03-23T04:28:28.208Z,2.66
2018-03-23T04:29:28.220Z,2.64
2018-03-23T04:30:28.215Z,2.66
2018-03-23T04:31:28.229Z,2.67
2018-03-23T04:32:28.208Z,2.66
2018-03-23T04:33:28.277Z,2.64
2018-03-23T04:34:28.240Z,2.6
2018-03-23T04:35:28.239Z,2.54
2018-03-23T04:36:28.240Z,2.59
2018-03-23T04:37:28.251Z,2.51
2018-03-23T04:38:28.297Z,2.6
2018-03-23T04:39:28.267Z,2.61
2018-03-23T04:40:28.262Z,2.7
2018-03-23T04:41:28.272Z,2.67
2018-03-23T04:42:28.302Z,2.61
2018-03-23T04:43:28.280Z,2.64
2018-03-23T04:44:28.272Z,2.67
2018-03-23T04:45:28.296Z,2.63
2018-03-23T04:46:28.281Z,2.64
2018-03-23T04:47:28.621Z,2.64
2018-03-23T04:48:28.284Z,2.69
2018-03-23T04:49:28.303Z,2.69
2018-03-23T04:50:28.275Z,2.64
2018-03-23T04:51:28.284Z,2.63
2018-03-23T04:52:28.323Z,2.58
2018-03-23T04:53:28.294Z,2.7
2018-03-23T04:54:28.332Z,2.67
2018-03-23T04:55:28.294Z,2.64
2018-03-23T04:56:28.322Z,2.7
2018-03-23T04:57:28.311Z,2.67
2018-03-23T04:58:28.331Z,2.68
2018-03-23T04:59:28.367Z,2.69
2018-03-23T05:00:28.345Z,2.71
2018-03-23T05:01:28.341Z,2.67
2018-03-23T05:02:28.342Z,2.71
2018-03-23T05:03:28.508Z,2.71
2018-03-23T05:04:28.340Z,2.71
2018-03-23T05:05:28.346Z,2.75
2018-03-23T05:06:28.466Z,2.76
2018-03-23T05:07:28.353Z,2.78
2018-03-23T05:08:28.390Z,2.77
2018-03-23T05:09:28.378Z,2.76
2018-03-23T05:10:28.363Z,2.76
2018-03-23T05:11:28.355Z,2.74
2018-03-23T05:12:28.360Z,2.68
2018-03-23T05:13:28.405Z,2.69
2018-03-23T05:14:28.367Z,2.7
2018-03-23T05:15:28.381Z,2.7
2018-03-23T05:16:28.399Z,2.7
2018-03-23T05:17:28.411Z,2.69
2018-03-23T05:18:28.428Z,2.76
2018-03-23T05:19:28.438Z,2.72
2018-03-23T05:20:28.427Z,2.7
2018-03-23T05:21:28.414Z,2.73
2018-03-23T05:22:28.398Z,2.67
2018-03-23T05:23:28.406Z,2.68
2018-03-23T05:24:28.409Z,2.72
2018-03-23T05:25:28.417Z,2.73
2018-03-23T05:26:28.412Z,2.7
2018-03-23T05:27:28.481Z,2.68
2018-03-23T05:28:28.438Z,2.72
2018-03-23T05:29:28.442Z,2.7
2018-03-23T05:30:28.421Z,2.66
2018-03-23T05:31:28.484Z,2.63
2018-03-23T05:32:28.459Z,2.66
2018-03-23T05:33:28.447Z,2.68
2018-03-23T05:34:28.455Z,2.63
2018-03-23T05:35:28.447Z,2.7
2018-03-23T05:36:28.449Z,2.65
2018-03-23T05:37:28.452Z,2.66
2018-03-23T05:38:28.480Z,2.73
2018-03-23T05:39:28.647Z,2.73
2018-03-23T05:40:28.483Z,2.65
2018-03-23T05:41:28.507Z,2.65
2018-03-23T05:42:28.458Z,2.65
2018-03-23T05:43:28.472Z,2.65
2018-03-23T05:44:28.472Z,2.71
2018-03-23T05:45:28.465Z,2.71
2018-03-23T05:46:28.474Z,2.73
2018-03-23T05:47:28.477Z,2.69
2018-03-23T05:48:28.523Z,2.66
2018-03-23T05:49:28.494Z,2.68
2018-03-23T05:50:28.502Z,2.65
2018-03-23T05:51:28.511Z,2.68
2018-03-23T05:52:28.488Z,2.63
2018-03-23T05:53:28.509Z,2.71
2018-03-23T05:54:28.544Z,2.66
2018-03-23T05:55:28.562Z,2.67
2018-03-23T05:56:28.533Z,2.66
2018-03-23T05:57:28.508Z,2.71
2018-03-23T05:58:28.556Z,2.69
2018-03-23T05:59:28.525Z,2.66
2018-03-23T06:00:28.516Z,2.67
2018-03-23T06:01:28.540Z,2.6
2018-03-23T06:02:28.551Z,2.56
2018-03-23T06:03:28.531Z,2.65
2018-03-23T06:04:28.538Z,2.71
2018-03-23T06:05:28.544Z,2.72
2018-03-23T06:06:28.740Z,2.67
2018-03-23T06:07:28.703Z,2.72
2018-03-23T06:08:28.555Z,2.71
2018-03-23T06:09:28.956Z,2.75
2018-03-23T06:10:28.592Z,2.72
2018-03-23T06:11:28.557Z,2.71
2018-03-23T06:12:28.554Z,2.71
2018-03-23T06:13:28.604Z,2.73
2018-03-23T06:14:28.575Z,2.75
2018-03-23T06:15:28.590Z,2.72
2018-03-23T06:16:28.587Z,2.75
2018-03-23T06:17:28.561Z,2.73
2018-03-23T06:18:28.581Z,2.72
2018-03-23T06:19:28.575Z,2.7
2018-03-23T06:20:28.608Z,2.74
2018-03-23T06:21:28.579Z,2.76
2018-03-23T06:22:28.584Z,2.74
2018-03-23T06:23:28.591Z,2.72
2018-03-23T06:24:28.607Z,2.74
2018-03-23T06:25:28.636Z,2.71
2018-03-23T06:26:28.610Z,2.68
2018-03-23T06:27:28.622Z,2.7
2018-03-23T06:28:28.609Z,2.64
2018-03-23T06:29:28.632Z,2.71
2018-03-23T06:30:28.645Z,2.68
2018-03-23T06:31:28.659Z,2.74
2018-03-23T06:32:28.649Z,2.77
2018-03-23T06:33:28.848Z,2.75
2018-03-23T06:34:28.633Z,2.69
2018-03-23T06:35:28.926Z,2.75
2018-03-23T06:36:28.633Z,2.77
2018-03-23T06:37:28.667Z,2.8
2018-03-23T06:38:28.707Z,2.79
2018-03-23T06:39:28.657Z,2.78
2018-03-23T06:40:28.684Z,2.8
2018-03-23T06:41:28.922Z,2.75
2018-03-23T06:42:28.663Z,2.78
2018-03-23T06:43:28.689Z,2.78
2018-03-23T06:44:28.664Z,2.8
2018-03-23T06:45:28.691Z,2.83
2018-03-23T06:46:28.654Z,2.81
2018-03-23T06:47:28.676Z,2.82
2018-03-23T06:48:28.776Z,2.86
2018-03-23T06:49:28.673Z,2.84
2018-03-23T06:50:28.699Z,2.82
2018-03-23T06:51:28.683Z,2.81
2018-03-23T06:52:28.684Z,2.79
2018-03-23T06:53:28.688Z,2.85
2018-03-23T06:54:28.894Z,2.84
2018-03-23T06:55:28.722Z,2.85
2018-03-23T06:56:28.696Z,2.86
2018-03-23T06:57:28.697Z,2.88
2018-03-23T06:58:28.700Z,2.88
2018-03-23T06:59:28.702Z,2.87
2018-03-23T07:00:28.733Z,2.84
2018-03-23T07:01:28.760Z,2.81
2018-03-23T07:02:28.723Z,2.9
2018-03-23T07:03:28.746Z,2.94
2018-03-23T07:04:28.723Z,2.91
2018-03-23T07:05:28.752Z,2.85
2018-03-23T07:06:28.787Z,2.89
2018-03-23T07:07:28.735Z,2.9
2018-03-23T07:08:28.730Z,2.94
2018-03-23T07:09:28.745Z,2.93
2018-03-23T07:10:28.727Z,2.91
2018-03-23T07:11:29.028Z,2.91
2018-03-23T07:12:28.754Z,3
2018-03-23T07:13:28.762Z,2.94
2018-03-23T07:14:28.757Z,2.93
2018-03-23T07:15:28.776Z,2.8
2018-03-23T07:16:28.794Z,2.8
2018-03-23T07:17:28.772Z,2.84
2018-03-23T07:18:28.783Z,2.85
2018-03-23T07:19:28.786Z,2.97
2018-03-23T07:20:28.808Z,2.9
2018-03-23T07:21:28.804Z,2.94
2018-03-23T07:22:28.785Z,2.96
2018-03-23T07:23:28.800Z,2.93
2018-03-23T07:24:28.794Z,2.97
2018-03-23T07:25:28.814Z,3
2018-03-23T07:26:28.808Z,2.95
2018-03-23T07:27:28.828Z,3
2018-03-23T07:28:28.819Z,3
2018-03-23T07:29:28.818Z,2.99
2018-03-23T07:30:28.817Z,2.98
2018-03-23T07:31:28.815Z,3.01
2018-03-23T07:32:28.896Z,3
2018-03-23T07:33:28.830Z,2.94
2018-03-23T07:34:28.854Z,3.08
2018-03-23T07:35:28.829Z,3.12
2018-03-23T07:36:28.838Z,3.12
2018-03-23T07:37:28.872Z,3.08
2018-03-23T07:38:28.847Z,3.06
2018-03-23T07:39:28.859Z,3.08
2018-03-23T07:40:28.860Z,3.06
2018-03-23T07:41:28.888Z,3.04
2018-03-23T07:42:28.905Z,2.99
2018-03-23T07:43:28.934Z,3.02
2018-03-23T07:44:28.874Z,3.12
2018-03-23T07:45:28.890Z,3.19
2018-03-23T07:46:28.886Z,3.16
2018-03-23T07:47:28.940Z,3.22
2018-03-23T07:48:28.922Z,3.2
2018-03-23T07:49:28.889Z,3.21
2018-03-23T07:50:28.898Z,3.14
2018-03-23T07:51:28.898Z,3.21
2018-03-23T07:52:28.956Z,3.22
2018-03-23T07:53:28.982Z,3.19
2018-03-23T07:54:28.914Z,3.19
2018-03-23T07:55:28.942Z,3.18
2018-03-23T07:56:28.955Z,3.23
2018-03-23T07:57:29.231Z,3.2
2018-03-23T07:58:28.927Z,3.2
2018-03-23T07:59:28.938Z,3.19
2018-03-23T08:00:28.957Z,3.23
2018-03-23T08:01:28.960Z,3.1
2018-03-23T08:02:28.979Z,3.05
2018-03-23T08:03:28.931Z,3.1
2018-03-23T08:04:28.963Z,3.09
2018-03-23T08:05:28.943Z,3.04
2018-03-23T08:06:28.955Z,3.02
2018-03-23T08:07:29.244Z,3.03
2018-03-23T08:08:28.956Z,3.07
2018-03-23T08:09:28.981Z,3.07
2018-03-23T08:10:28.962Z,3.1
2018-03-23T08:11:28.960Z,2.95
2018-03-23T08:12:29.006Z,3.01
2018-03-23T08:13:28.989Z,3.06
2018-03-23T08:14:28.969Z,3.1
2018-03-23T08:15:29.014Z,3.07
2018-03-23T08:16:29.039Z,3.08
2018-03-23T08:17:29.043Z,3.11
2018-03-23T08:18:28.983Z,3.1
2018-03-23T08:19:29.123Z,3.09
2018-03-23T08:20:29.018Z,3.19
2018-03-23T08:21:29.017Z,3.15
2018-03-23T08:22:29.017Z,3.13
2018-03-23T08:23:29.000Z,3.1
2018-03-23T08:24:29.029Z,3.14
2018-03-23T08:25:29.016Z,3.16
2018-03-23T08:26:29.003Z,3.21
2018-03-23T08:27:29.074Z,3.22
2018-03-23T08:28:29.039Z,3.17
2018-03-23T08:29:29.043Z,3.2
2018-03-23T08:30:29.023Z,3.13
2018-03-23T08:31:29.026Z,3.16
2018-03-23T08:32:29.031Z,3.11
2018-03-23T08:33:29.029Z,3.2
2018-03-23T08:34:29.044Z,3.21
2018-03-23T08:35:29.039Z,3.28
2018-03-23T08:36:29.052Z,3.27
2018-03-23T08:37:29.076Z,3.25
2018-03-23T08:38:29.047Z,3.29
2018-03-23T08:39:29.053Z,3.26
2018-03-23T08:40:29.035Z,3.27
2018-03-23T08:41:29.054Z,3.21
2018-03-23T08:42:29.035Z,3.27
2018-03-23T08:43:29.045Z,3.23
2018-03-23T08:44:29.266Z,3.27
2018-03-23T08:45:29.067Z,3.25
2018-03-23T08:46:29.071Z,3.34
2018-03-23T08:47:29.105Z,3.34
2018-03-23T08:48:29.088Z,3.29
2018-03-23T08:49:29.070Z,3.28
2018-03-23T08:50:29.097Z,3.29
2018-03-23T08:51:29.096Z,3.29
2018-03-23T08:52:29.167Z,3.3
2018-03-23T08:53:29.311Z,3.3
2018-03-23T08:54:29.092Z,3.38
2018-03-23T08:55:29.101Z,3.34
2018-03-23T08:56:29.114Z,3.36
2018-03-23T08:57:29.110Z,3.41
2018-03-23T08:58:29.138Z,3.4
2018-03-23T08:59:29.101Z,3.42
2018-03-23T09:00:29.100Z,3.4
2018-03-23T09:01:29.109Z,3.36
2018-03-23T09:02:29.144Z,3.39
2018-03-23T09:03:29.283Z,3.36
2018-03-23T09:04:29.126Z,3.4
2018-03-23T09:05:29.154Z,3.39
2018-03-23T09:06:29.128Z,3.39
2018-03-23T09:07:29.127Z,3.4
2018-03-23T09:08:29.152Z,3.45
2018-03-23T09:09:29.147Z,3.38
2018-03-23T09:10:29.152Z,3.41
2018-03-23T09:11:29.157Z,3.41
2018-03-23T09:12:29.152Z,3.33
2018-03-23T09:13:29.185Z,3.31
2018-03-23T09:14:29.150Z,3.38
2018-03-23T09:15:29.155Z,3.44
2018-03-23T09:16:29.166Z,3.44
2018-03-23T09:17:29.163Z,3.46
2018-03-23T09:18:29.171Z,3.48
2018-03-23T09:19:29.188Z,3.41
2018-03-23T09:20:29.312Z,3.47
2018-03-23T09:21:29.163Z,3.42
2018-03-23T09:22:29.165Z,3.44
2018-03-23T09:23:29.219Z,3.4
2018-03-23T09:24:29.187Z,3.39
2018-03-23T09:25:29.207Z,3.44
2018-03-23T09:26:29.194Z,3.44
2018-03-23T09:27:29.208Z,3.39
2018-03-23T09:28:29.232Z,3.43
2018-03-23T09:29:29.199Z,3.44
2018-03-23T09:30:29.215Z,3.46
2018-03-23T09:31:29.216Z,3.45
2018-03-23T09:32:29.204Z,3.48
2018-03-23T09:33:29.511Z,3.5
2018-03-23T09:34:29.217Z,3.53
2018-03-23T09:35:29.224Z,3.48
2018-03-23T09:36:29.218Z,3.51
2018-03-23T09:37:29.214Z,3.54
2018-03-23T09:38:29.411Z,3.47
2018-03-23T09:39:29.244Z,3.51
2018-03-23T09:40:29.230Z,3.46
2018-03-23T09:41:29.261Z,3.48
2018-03-23T09:42:29.266Z,3.55
2018-03-23T09:43:29.295Z,3.51
2018-03-23T09:44:29.270Z,3.51
2018-03-23T09:45:29.261Z,3.59
2018-03-23T09:46:29.263Z,3.57
2018-03-23T09:47:29.258Z,3.64
2018-03-23T09:48:29.299Z,3.61
2018-03-23T09:49:29.275Z,3.64
2018-03-23T09:50:29.252Z,3.63
2018-03-23T09:51:29.262Z,3.6
2018-03-23T09:52:29.278Z,3.64
2018-03-23T09:53:29.288Z,3.62
2018-03-23T09:54:29.282Z,3.6
2018-03-23T09:55:29.285Z,3.66
2018-03-23T09:56:29.268Z,3.6
2018-03-23T09:57:29.294Z,3.69
2018-03-23T09:58:29.456Z,3.67
2018-03-23T09:59:29.301Z,3.72
2018-03-23T10:00:29.284Z,3.72
2018-03-23T10:01:29.297Z,3.64
2018-03-23T10:02:29.288Z,3.68
2018-03-23T10:03:29.386Z,3.69
2018-03-23T10:04:29.378Z,3.74
2018-03-23T10:05:29.558Z,3.78
2018-03-23T10:06:29.287Z,3.75
2018-03-23T10:07:29.295Z,3.76
2018-03-23T10:08:29.302Z,3.78
2018-03-23T10:09:29.328Z,3.76
2018-03-23T10:10:29.309Z,3.81
2018-03-23T10:11:29.314Z,3.81
2018-03-23T10:12:29.315Z,3.78
2018-03-23T10:13:29.305Z,3.84
2018-03-23T10:14:29.353Z,3.84
2018-03-23T10:15:29.580Z,3.87
2018-03-23T10:16:29.348Z,3.86
2018-03-23T10:17:29.364Z,3.89
2018-03-23T10:18:29.330Z,3.95
2018-03-23T10:19:29.355Z,3.99
2018-03-23T10:20:29.335Z,3.99
2018-03-23T10:21:29.405Z,3.99
2018-03-23T10:22:29.375Z,4
2018-03-23T10:23:29.384Z,4
2018-03-23T10:24:29.377Z,3.99
2018-03-23T10:25:29.370Z,3.97
2018-03-23T10:26:29.359Z,3.97
2018-03-23T10:27:29.357Z,3.9
2018-03-23T10:28:29.378Z,3.96
2018-03-23T10:29:29.382Z,4
2018-03-23T10:30:29.372Z,4.01
2018-03-23T10:31:29.381Z,4.02
2018-03-23T10:32:29.378Z,4.05
2018-03-23T10:33:29.383Z,4.05
2018-03-23T10:34:29.384Z,4.06
2018-03-23T10:35:29.637Z,4.07
2018-03-23T10:36:29.433Z,4.07
2018-03-23T10:37:29.424Z,4.1
2018-03-23T10:38:29.386Z,4.09
2018-03-23T10:39:29.412Z,4.12
2018-03-23T10:40:29.406Z,4.18
2018-03-23T10:41:29.406Z,4.13
2018-03-23T10:42:29.407Z,4.13
2018-03-23T10:43:29.710Z,4.17
2018-03-23T10:44:29.427Z,4.18
2018-03-23T10:45:29.405Z,4.15
2018-03-23T10:46:29.425Z,4.21
2018-03-23T10:47:29.434Z,4.11
2018-03-23T10:48:29.432Z,4.1
2018-03-23T10:49:29.423Z,4.12
2018-03-23T10:50:29.410Z,4.21
2018-03-23T10:51:29.445Z,4.1
2018-03-23T10:52:29.482Z,4.13
2018-03-23T10:53:29.705Z,4.05
2018-03-23T10:54:29.438Z,3.97
2018-03-23T10:55:29.427Z,4
2018-03-23T10:56:29.438Z,4.02
2018-03-23T10:57:29.442Z,4.05
2018-03-23T10:58:29.481Z,4.11
2018-03-23T10:59:29.434Z,4.09
2018-03-23T11:00:29.449Z,4.1
2018-03-23T11:01:29.481Z,4.15
2018-03-23T11:02:29.457Z,4.17
2018-03-23T11:03:29.501Z,4.2
2018-03-23T11:04:29.472Z,4.22
2018-03-23T11:05:29.475Z,4.19
2018-03-23T11:06:29.509Z,4.21
2018-03-23T11:07:29.488Z,4.23
2018-03-23T11:08:29.495Z,4.28
2018-03-23T11:09:29.503Z,4.24
2018-03-23T11:10:29.501Z,4.28
2018-03-23T11:11:29.493Z,4.26
2018-03-23T11:12:29.508Z,4.27
2018-03-23T11:13:29.508Z,4.17
2018-03-23T11:14:29.769Z,4.22
2018-03-23T11:15:29.522Z,4.13
2018-03-23T11:16:29.522Z,4.28
2018-03-23T11:17:29.522Z,4.21
2018-03-23T11:18:29.529Z,4.19
2018-03-23T11:19:29.550Z,4.21
2018-03-23T11:20:29.528Z,4.26
2018-03-23T11:21:29.549Z,4.21
2018-03-23T11:22:29.557Z,4.16
2018-03-23T11:23:29.592Z,4.22
2018-03-23T11:24:29.887Z,4.21
2018-03-23T11:25:29.524Z,4.24
2018-03-23T11:26:29.554Z,4.22
2018-03-23T11:27:29.550Z,4.21
2018-03-23T11:28:29.580Z,4.2
2018-03-23T11:29:29.570Z,4.22
2018-03-23T11:30:29.566Z,4.3
2018-03-23T11:31:29.562Z,4.3
2018-03-23T11:32:29.581Z,4.34
2018-03-23T11:33:29.585Z,4.43
2018-03-23T11:34:29.576Z,4.45
2018-03-23T11:35:29.605Z,4.52
2018-03-23T11:36:29.592Z,4.57
2018-03-23T11:37:29.620Z,4.51
2018-03-23T11:38:29.599Z,4.53
2018-03-23T11:39:29.605Z,4.58
2018-03-23T11:40:29.631Z,4.5
2018-03-23T11:41:29.631Z,4.51
2018-03-23T11:42:29.622Z,4.55
2018-03-23T11:43:29.605Z,4.74
2018-03-23T11:44:29.607Z,4.69
2018-03-23T11:45:29.633Z,4.79
2018-03-23T11:46:29.609Z,4.74
2018-03-23T11:47:29.639Z,4.69
2018-03-23T11:48:29.633Z,4.65
2018-03-23T11:49:29.653Z,4.63
2018-03-23T11:50:29.690Z,4.57
2018-03-23T11:51:29.707Z,4.65
2018-03-23T11:52:29.681Z,4.6
2018-03-23T11:53:29.657Z,4.65
2018-03-23T11:54:29.726Z,4.66
2018-03-23T11:55:29.696Z,4.77
2018-03-23T11:56:29.826Z,4.69
2018-03-23T11:57:29.696Z,4.64
2018-03-23T11:58:29.725Z,4.55
2018-03-23T11:59:29.706Z,4.6
2018-03-23T12:00:29.689Z,4.56
2018-03-23T12:01:29.711Z,4.61
2018-03-23T12:02:29.686Z,4.66
2018-03-23T12:03:29.680Z,4.65
2018-03-23T12:04:29.698Z,4.6
2018-03-23T12:05:29.722Z,4.59
2018-03-23T12:06:29.694Z,4.5
2018-03-23T12:07:29.906Z,4.57
2018-03-23T12:08:29.735Z,4.62
2018-03-23T12:09:29.724Z,4.68
2018-03-23T12:10:29.859Z,4.72
2018-03-23T12:11:29.815Z,4.68
2018-03-23T12:12:29.742Z,4.67
2018-03-23T12:13:29.710Z,4.65
2018-03-23T12:14:29.985Z,4.64
2018-03-23T12:15:29.789Z,4.68
2018-03-23T12:16:29.808Z,4.73
2018-03-23T12:17:29.810Z,4.77
2018-03-23T12:18:29.748Z,4.74
2018-03-23T12:19:29.752Z,4.69
2018-03-23T12:20:30.901Z,4.77
2018-03-23T12:21:30.024Z,4.76
2018-03-23T12:22:29.764Z,4.66
2018-03-23T12:23:29.799Z,4.74
2018-03-23T12:24:29.773Z,4.81
2018-03-23T12:25:29.820Z,4.8
2018-03-23T12:26:29.786Z,4.73
2018-03-23T12:27:29.969Z,4.87
2018-03-23T12:28:29.793Z,4.83
2018-03-23T12:29:29.861Z,4.87
2018-03-23T12:30:29.815Z,4.96
2018-03-23T12:31:29.869Z,5.02
2018-03-23T12:32:29.814Z,5.15
2018-03-23T12:33:29.850Z,5.04
2018-03-23T12:34:29.820Z,4.97
2018-03-23T12:35:29.848Z,4.97
2018-03-23T12:36:29.828Z,4.9
2018-03-23T12:37:29.867Z,4.86
2018-03-23T12:38:29.844Z,4.89
2018-03-23T12:39:29.847Z,4.86
2018-03-23T12:40:29.870Z,4.92
2018-03-23T12:41:30.162Z,4.92
2018-03-23T12:42:29.851Z,4.93
2018-03-23T12:43:29.851Z,4.95
2018-03-23T12:44:29.852Z,4.94
2018-03-23T12:45:30.258Z,4.99
2018-03-23T12:46:29.907Z,4.94
2018-03-23T12:47:29.872Z,4.96
2018-03-23T12:48:29.887Z,4.96
2018-03-23T12:49:29.892Z,4.96
2018-03-23T12:50:29.863Z,4.89
2018-03-23T12:51:29.917Z,4.99
2018-03-23T12:52:29.893Z,5.08
2018-03-23T12:53:29.904Z,5.02
2018-03-23T12:54:29.886Z,5
2018-03-23T12:55:29.891Z,5.05
2018-03-23T12:56:29.906Z,5.14
2018-03-23T12:57:29.903Z,5.05
2018-03-23T12:58:30.447Z,5.02
2018-03-23T12:59:29.886Z,5.06
2018-03-23T13:00:29.901Z,5.05
2018-03-23T13:01:29.908Z,5.11
2018-03-23T13:02:29.927Z,5.12
2018-03-23T13:03:29.911Z,5.04
2018-03-23T13:04:29.904Z,5.05
2018-03-23T13:05:29.935Z,5.1
2018-03-23T13:06:29.934Z,5.09
2018-03-23T13:07:29.924Z,5.08
2018-03-23T13:08:29.932Z,4.98
2018-03-23T13:09:30.226Z,4.89
2018-03-23T13:10:29.918Z,4.94
2018-03-23T13:11:29.968Z,4.9
2018-03-23T13:12:29.991Z,4.91
2018-03-23T13:13:29.941Z,4.92
2018-03-23T13:14:29.969Z,4.96
2018-03-23T13:15:29.998Z,4.95
2018-03-23T13:16:29.960Z,5.02
2018-03-23T13:17:29.960Z,4.99
2018-03-23T13:18:29.970Z,4.97
2018-03-23T13:19:29.969Z,4.99
2018-03-23T13:20:29.971Z,5.03
2018-03-23T13:21:29.987Z,5.07
2018-03-23T13:22:30.009Z,5.14